Time;durP1;ratioP1;P1;durP2;ratioP2;P2;SDS_P1;SDS_P2;PMS_P1;PMS_P2;Temp;Humidity;BMP_temperature;BMP_pressure;BME280_temperature;BME280_humidity;BME280_pressure;Samples;Min_cycle;Max_cycle;Signal;HPM_P1;HPM_P2
2023/07/31 00:08:46;;;;;;;;;;;;;;;17.59;90.35;100901.22;21094220;27;19923;-61
2023/07/31 00:19:08;;;;;;;;;;;;;;;17.55;89.63;100897.09;21081161;27;20544;-61
2023/07/31 00:29:29;;;;;;;;;;;;;;;17.51;89.65;100877.25;21098151;27;19928;-61
2023/07/31 00:39:51;;;;;;;;;;;;;;;17.40;90.32;100863.06;21100810;27;20276;-61
2023/07/31 00:50:13;;;;;;;;;;;;;;;17.37;91.15;100865.84;21096573;27;19930;-61
2023/07/31 01:00:34;;;;;;;;;;;;;;;17.34;91.54;100874.72;21104516;27;19924;-61
2023/07/31 01:11:06;;;;;;;;;;;;;;;17.32;91.60;100870.53;21091588;28;19953;-61
2023/07/31 01:21:36;;;;;;;;;;;;;;;17.31;91.94;100863.59;21090199;27;19951;-61
2023/07/31 01:32:01;;;;;;;;;;;;;;;17.21;93.02;100858.06;21112426;27;20291;-61
2023/07/31 01:42:22;;;;;;;;;;;;;;;16.98;96.48;100840.19;21088875;27;20026;-62
2023/07/31 01:52:43;;;;;;;;;;;;;;;16.79;99.32;100814.22;21107260;27;19928;-62
2023/07/31 02:03:05;;;;;;;;;;;;;;;16.64;100.00;100812.50;21126207;27;19924;-62
2023/07/31 02:13:26;;;;;;;;;;;;;;;16.55;100.00;100807.78;21098502;27;19928;-63
2023/07/31 02:23:50;;;;;;;;;;;;;;;16.46;100.00;100816.06;21105455;27;20195;-63
2023/07/31 02:34:11;;;;;;;;;;;;;;;16.42;100.00;100804.09;21095826;27;19923;-63
2023/07/31 02:44:33;;;;;;;;;;;;;;;16.39;100.00;100785.16;21098008;27;20011;-63
2023/07/31 02:54:54;;;;;;;;;;;;;;;16.40;100.00;100790.28;21114273;27;19924;-63
2023/07/31 03:05:16;;;;;;;;;;;;;;;16.33;100.00;100796.78;21087851;27;19930;-64
2023/07/31 03:15:37;;;;;;;;;;;;;;;16.31;100.00;100771.66;21105171;27;19938;-63
2023/07/31 03:26:00;;;;;;;;;;;;;;;16.26;100.00;100769.28;21096140;27;19927;-63
2023/07/31 03:36:21;;;;;;;;;;;;;;;16.23;100.00;100777.28;21111328;27;20386;-63
2023/07/31 03:46:43;;;;;;;;;;;;;;;16.25;100.00;100757.16;21095681;27;20613;-64
2023/07/31 03:57:04;;;;;;;;;;;;;;;16.24;100.00;100752.03;21098106;27;19935;-64
2023/07/31 04:07:26;;;;;;;;;;;;;;;16.20;100.00;100751.34;21104460;27;19966;-64
2023/07/31 04:17:47;;;;;;;;;;;;;;;16.23;100.00;100735.50;21088546;27;19959;-64
2023/07/31 04:28:09;;;;;;;;;;;;;;;16.21;100.00;100731.31;21100043;27;20225;-64
2023/07/31 04:38:32;;;;;;;;;;;;;;;16.16;100.00;100734.16;21094834;27;20014;-64
2023/07/31 04:48:53;;;;;;;;;;;;;;;16.26;100.00;100732.72;21091866;27;19938;-64
2023/07/31 04:59:15;;;;;;;;;;;;;;;16.27;100.00;100726.56;21092206;27;20649;-64
2023/07/31 05:09:36;;;;;;;;;;;;;;;16.27;100.00;100718.75;21092065;28;19931;-64
2023/07/31 05:19:58;;;;;;;;;;;;;;;16.35;100.00;100716.56;21109432;28;19931;-64
2023/07/31 05:30:21;;;;;;;;;;;;;;;16.40;100.00;100695.41;21087404;28;19958;-64
2023/07/31 05:40:43;;;;;;;;;;;;;;;16.42;100.00;100699.63;21083887;28;20034;-64
2023/07/31 05:51:04;;;;;;;;;;;;;;;16.44;100.00;100687.31;21084292;28;20161;-64
2023/07/31 06:01:26;;;;;;;;;;;;;;;16.50;100.00;100668.69;21092168;27;20360;-64
2023/07/31 06:11:47;;;;;;;;;;;;;;;16.56;100.00;100663.13;21108237;27;19932;-64
2023/07/31 06:22:09;;;;;;;;;;;;;;;16.62;100.00;100662.78;21091948;27;19932;-64
2023/07/31 06:32:30;;;;;;;;;;;;;;;16.69;100.00;100651.03;21110921;27;19924;-64
2023/07/31 06:42:52;;;;;;;;;;;;;;;16.70;100.00;100663.16;21117657;27;19924;-65
2023/07/31 06:53:13;;;;;;;;;;;;;;;16.76;100.00;100649.75;21097412;27;19928;-64
2023/07/31 07:03:35;;;;;;;;;;;;;;;16.85;100.00;100630.91;21103431;27;20034;-64
2023/07/31 07:13:56;;;;;;;;;;;;;;;16.85;100.00;100630.91;21095675;27;19923;-64
2023/07/31 07:24:18;;;;;;;;;;;;;;;16.88;100.00;100609.81;21105599;27;19924;-64
2023/07/31 07:34:39;;;;;;;;;;;;;;;17.00;100.00;100610.88;21104552;27;19924;-65
2023/07/31 07:45:01;;;;;;;;;;;;;;;17.06;100.00;100613.13;21105679;27;19940;-65
2023/07/31 07:55:22;;;;;;;;;;;;;;;17.14;100.00;100615.28;21075475;27;19924;-65
2023/07/31 08:05:44;;;;;;;;;;;;;;;17.29;100.00;100598.66;21089827;27;19935;-65
2023/07/31 08:16:06;;;;;;;;;;;;;;;17.42;100.00;100573.41;21093981;27;20449;-65
2023/07/31 08:26:27;;;;;;;;;;;;;;;17.48;100.00;100565.22;21085580;27;19925;-65
2023/07/31 08:36:49;;;;;;;;;;;;;;;17.51;100.00;100552.78;21076159;27;19924;-65
2023/07/31 08:47:10;;;;;;;;;;;;;;;17.56;100.00;100560.34;21084451;27;20081;-64
2023/07/31 08:57:34;;;;;;;;;;;;;;;17.56;100.00;100565.59;21092813;27;20273;-64
2023/07/31 09:07:56;;;;;;;;;;;;;;;17.52;100.00;100564.09;21086046;27;20439;-64
2023/07/31 09:18:20;;;;;;;;;;;;;;;17.51;100.00;100547.53;21082789;28;19924;-65
2023/07/31 09:28:41;;;;;;;;;;;;;;;17.57;100.00;100541.06;21083482;28;19966;-64
2023/07/31 09:39:04;;;;;;;;;;;;;;;17.60;100.00;100533.06;21101628;27;20014;-64
2023/07/31 09:49:25;;;;;;;;;;;;;;;17.64;100.00;100513.56;21108687;27;19928;-65
2023/07/31 09:59:48;;;;;;;;;;;;;;;17.73;100.00;100500.75;21103520;27;19928;-65
2023/07/31 10:10:09;;;;;;;;;;;;;;;17.83;100.00;100488.75;21106372;27;20018;-64
2023/07/31 10:20:31;;;;;;;;;;;;;;;17.92;100.00;100490.75;21083034;27;19926;-64
2023/07/31 10:30:54;;;;;;;;;;;;;;;18.06;100.00;100474.13;21090425;27;20010;-64
2023/07/31 10:41:15;;;;;;;;;;;;;;;18.17;100.00;100455.91;21103389;27;19984;-63
2023/07/31 10:51:37;;;;;;;;;;;;;;;18.24;100.00;100461.59;21110688;27;19930;-64
2023/07/31 11:02:02;;;;;;;;;;;;;;;18.30;100.00;100453.31;21099030;27;19928;-64
2023/07/31 11:12:23;;;;;;;;;;;;;;;18.39;100.00;100439.56;21095435;27;20399;-64
2023/07/31 11:22:46;;;;;;;;;;;;;;;18.45;100.00;100434.81;21108017;27;19928;-64
2023/07/31 11:33:08;;;;;;;;;;;;;;;18.42;100.00;100442.84;21104363;27;19924;-65
2023/07/31 11:43:33;;;;;;;;;;;;;;;18.42;100.00;100429.75;21097279;27;19928;-65
2023/07/31 11:53:57;;;;;;;;;;;;;;;18.53;100.00;100414.13;21088870;27;20292;-65
2023/07/31 12:04:19;;;;;;;;;;;;;;;18.65;100.00;100397.56;21100292;27;19928;-65
2023/07/31 12:14:41;;;;;;;;;;;;;;;18.72;100.00;100409.28;21109506;27;20014;-64
2023/07/31 12:25:03;;;;;;;;;;;;;;;18.84;100.00;100392.69;21094829;27;19924;-64
2023/07/31 12:35:24;;;;;;;;;;;;;;;18.99;100.00;100375.84;21093629;27;19925;-64
2023/07/31 12:45:47;;;;;;;;;;;;;;;19.12;100.00;100365.31;21086228;27;20283;-65
2023/07/31 12:56:09;;;;;;;;;;;;;;;19.19;100.00;100371.81;21088729;27;19924;-64
2023/07/31 13:06:30;;;;;;;;;;;;;;;19.15;100.00;100364.25;21092046;27;20376;-64
2023/07/31 13:16:52;;;;;;;;;;;;;;;19.08;100.00;100368.28;21084418;28;19928;-65
2023/07/31 13:27:16;;;;;;;;;;;;;;;19.08;100.00;100360.41;21089504;28;19930;-65
2023/07/31 13:37:38;;;;;;;;;;;;;;;19.01;100.00;100362.63;21093370;28;19924;-64
2023/07/31 13:47:59;;;;;;;;;;;;;;;18.92;100.00;100348.41;21082405;28;19927;-64
2023/07/31 13:58:21;;;;;;;;;;;;;;;18.84;100.00;100345.47;21081711;28;19924;-64
2023/07/31 14:08:42;;;;;;;;;;;;;;;18.74;100.00;100347.09;21085554;28;19928;-64
2023/07/31 14:19:04;;;;;;;;;;;;;;;18.57;100.00;100350.06;21093330;28;20521;-64
2023/07/31 14:29:26;;;;;;;;;;;;;;;18.65;100.00;100384.47;21103087;27;19963;-65
2023/07/31 14:39:47;;;;;;;;;;;;;;;18.81;100.00;100382.41;21101293;27;19959;-65
2023/07/31 14:50:09;;;;;;;;;;;;;;;19.08;100.00;100368.28;21090157;27;20378;-65
2023/07/31 15:00:30;;;;;;;;;;;;;;;19.23;100.00;100346.19;21100671;27;19935;-65
2023/07/31 15:10:57;;;;;;;;;;;;;;;19.25;100.00;100344.25;21083933;27;19963;-65
2023/07/31 15:21:18;;;;;;;;;;;;;;;19.26;100.00;100351.19;21094948;27;20299;-65
2023/07/31 15:31:40;;;;;;;;;;;;;;;19.27;100.00;100363.34;21108474;27;19930;-65
2023/07/31 15:42:02;;;;;;;;;;;;;;;19.28;100.00;100349.31;21097407;27;19977;-65
2023/07/31 15:52:23;;;;;;;;;;;;;;;19.24;100.00;100347.84;21098511;27;20015;-65
2023/07/31 16:02:45;;;;;;;;;;;;;;;19.29;100.00;100311.59;21105639;27;19932;-65
2023/07/31 16:13:07;;;;;;;;;;;;;;;19.39;100.00;100304.75;21116718;27;19928;-66
2023/07/31 16:23:28;;;;;;;;;;;;;;;19.44;100.00;100286.88;21094573;27;20004;-65
2023/07/31 16:33:49;;;;;;;;;;;;;;;19.40;100.00;100278.41;21089543;27;20026;-65
2023/07/31 16:44:12;;;;;;;;;;;;;;;19.33;100.00;100284.22;21089798;27;19927;-65
2023/07/31 16:54:37;;;;;;;;;;;;;;;19.25;100.00;100289.16;21095319;27;19923;-65
2023/07/31 17:04:58;;;;;;;;;;;;;;;19.18;100.00;100290.56;21093693;27;19924;-65
2023/07/31 17:15:20;;;;;;;;;;;;;;;19.13;100.00;100262.06;21095263;28;20299;-65
2023/07/31 17:25:41;;;;;;;;;;;;;;;19.08;100.00;100263.34;21089232;28;20006;-65
2023/07/31 17:36:03;;;;;;;;;;;;;;;19.03;100.00;100254.03;21103618;28;19932;-64
2023/07/31 17:46:25;;;;;;;;;;;;;;;18.99;100.00;100233.38;21090074;28;19924;-65
2023/07/31 17:56:47;;;;;;;;;;;;;;;18.91;100.00;100233.13;21099643;27;20024;-64
2023/07/31 18:07:08;;;;;;;;;;;;;;;18.88;100.00;100223.69;21105984;27;19923;-65
2023/07/31 18:17:29;;;;;;;;;;;;;;;18.86;100.00;100207.22;21097771;27;19924;-65
2023/07/31 18:27:51;;;;;;;;;;;;;;;18.88;100.00;100210.56;21113433;27;19932;-65
2023/07/31 18:38:12;;;;;;;;;;;;;;;18.79;100.00;100195.53;21109923;27;19931;-66
2023/07/31 18:48:34;;;;;;;;;;;;;;;18.69;100.00;100177.97;21095328;27;19924;-66
2023/07/31 18:58:55;;;;;;;;;;;;;;;18.68;100.00;100163.22;21102852;27;19931;-66
2023/07/31 19:09:27;;;;;;;;;;;;;;;18.62;100.00;100159.25;21081065;27;19954;-66
2023/07/31 19:19:48;;;;;;;;;;;;;;;18.58;100.00;100134.22;21105812;27;19963;-66
2023/07/31 19:30:10;;;;;;;;;;;;;;;18.60;100.00;100116.59;21102218;27;19969;-66
2023/07/31 19:40:32;;;;;;;;;;;;;;;18.39;100.00;100105.03;21094512;27;19924;-66
2023/07/31 19:50:53;;;;;;;;;;;;;;;18.06;100.00;100092.63;21087580;27;19928;-66
2023/07/31 20:01:14;;;;;;;;;;;;;;;17.95;100.00;100123.97;21103399;27;20569;-66
2023/07/31 20:11:36;;;;;;;;;;;;;;;18.03;100.00;100095.47;21091348;27;19932;-66
2023/07/31 20:21:58;;;;;;;;;;;;;;;18.09;100.00;100052.31;21100587;27;20485;-67
2023/07/31 20:32:19;;;;;;;;;;;;;;;18.06;100.00;100090.00;21092001;27;19967;-66
2023/07/31 20:42:41;;;;;;;;;;;;;;;17.84;100.00;100052.38;21103252;27;19923;-66
2023/07/31 20:53:03;;;;;;;;;;;;;;;17.66;100.00;100032.78;21090692;27;20019;-66
2023/07/31 21:03:24;;;;;;;;;;;;;;;17.53;100.00;100016.28;21078247;27;19932;-66
2023/07/31 21:13:47;;;;;;;;;;;;;;;17.52;100.00;100017.25;21081734;28;20377;-67
2023/07/31 21:24:08;;;;;;;;;;;;;;;17.44;100.00;99999.44;21098694;28;19938;-67
2023/07/31 21:34:30;;;;;;;;;;;;;;;17.43;100.00;99969.00;21090803;27;20420;-67
2023/07/31 21:44:51;;;;;;;;;;;;;;;17.41;100.00;99975.28;21109455;27;19923;-67
2023/07/31 21:55:13;;;;;;;;;;;;;;;17.43;100.00;99957.69;21097658;27;20035;-67
2023/07/31 22:05:35;;;;;;;;;;;;;;;17.40;100.00;99942.22;21094662;27;20280;-66
2023/07/31 22:15:56;;;;;;;;;;;;;;;17.41;100.00;99925.59;21091435;27;20585;-67
2023/07/31 22:26:18;;;;;;;;;;;;;;;17.42;100.00;99919.41;21106613;27;19931;-66
2023/07/31 22:36:39;;;;;;;;;;;;;;;17.46;100.00;99916.47;21117874;22;19931;-62
2023/07/31 22:47:01;;;;;;;;;;;;;;;17.50;100.00;99896.16;21094198;27;20261;-62
2023/07/31 22:57:23;;;;;;;;;;;;;;;17.54;100.00;99876.69;21092668;27;20046;-62
2023/07/31 23:07:44;;;;;;;;;;;;;;;17.62;100.00;99879.56;21087154;27;19924;-62
2023/07/31 23:18:06;;;;;;;;;;;;;;;17.66;100.00;99846.97;21096781;27;19924;-62
2023/07/31 23:28:30;;;;;;;;;;;;;;;17.69;100.00;99852.00;21088236;27;19943;-63
2023/07/31 23:38:51;;;;;;;;;;;;;;;17.67;100.00;99831.16;21088511;28;19940;-62
2023/07/31 23:49:13;;;;;;;;;;;;;;;17.66;100.00;99833.91;21102010;28;20444;-63
2023/07/31 23:59:34;;;;;;;;;;;;;;;17.63;100.00;99814.06;21092867;27;19924;-62
